< < Back
Terminal Aerodrome Forecast


Current Version              Previous Versions:   1  2  3  4  5  6  7  8  9  

Terminal Aerodrome Forecast

636
FTUS42 KILM 182300
TAFFLO
TAF
KFLO 182320Z 1900/1924 00000KT P6SM FEW100 SCT250
     FM191400 03006KT P6SM SCT200=

Latest METAR

609
SAUS70 KWBC 190958
MTRFLO
METAR KFLO 190953Z AUTO 00000KT 10SM CLR 02/00 A3009 RMK AO2 SLP188
T00220000


USA.gov is the U.S. government's official web portal to all federal, state and local government web resources and services.